< Typhoon 200514 2005 Season Typhoon 200516 >
Typhoon 200515 (KHANUN)
General InformationTrack Information on Google MapsDetailed Wind InformationAccess Analytics MapList of All Images || NewsDisaster Info.WeblogTrackbackTyphoon FrontResourceGoogle EarthGE AnimationAtom FeedGeoJSON
Detalied Best Track (Time Zone = UTC)
Year Month Day Hour Lat. Long. Pressure (hPa) Wind (kt) Class Image Chart
2005 9 5 00 8.2 142.3 1006 0 2 Image Chart
2005 9 5 06 8.7 141.0 1004 0 2 Image Chart
2005 9 5 12 9.3 139.9 1004 0 2 Image Chart
2005 9 5 18 10.0 138.7 1004 0 2 Image Chart
2005 9 6 00 10.5 137.8 1006 0 2 Image Chart
2005 9 6 06 11.1 137.0 1004 0 2 Image Chart
2005 9 6 12 12.1 136.0 1004 0 2 Image Chart
2005 9 6 18 13.0 135.2 1004 0 2 Image Chart
2005 9 7 00 14.0 134.4 1002 35 3 Image Chart
2005 9 7 06 14.0 134.0 998 40 3 Image Chart
2005 9 7 12 14.0 133.6 992 45 3 Image Chart
2005 9 7 18 14.8 133.0 985 50 4 Image Chart
2005 9 8 00 15.3 132.5 980 55 4 Image Chart
2005 9 8 06 16.3 132.4 980 55 4 Image Chart
2005 9 8 12 17.4 131.5 975 60 4 Image Chart
2005 9 8 18 18.2 131.1 970 65 5 Image Chart
2005 9 9 00 19.2 130.5 955 80 5 Image Chart
2005 9 9 06 20.4 129.7 955 80 5 Image Chart
2005 9 9 12 21.4 128.5 955 80 5 Image Chart
2005 9 9 18 22.2 127.5 955 75 5 Image Chart
2005 9 9 21 22.8 126.9 955 75 5 Image Chart
2005 9 10 00 23.2 126.3 955 75 5 Image Chart
2005 9 10 03 23.6 125.8 955 75 5 Image Chart
2005 9 10 06 24.2 125.3 950 85 5 Image Chart
2005 9 10 09 24.5 124.9 945 85 5 Image Chart
2005 9 10 12 25.1 124.5 945 85 5 Image Chart
2005 9 10 15 25.6 123.9 945 85 5 Image Chart
2005 9 10 18 26.1 123.5 945 85 5 Image Chart
2005 9 10 21 26.7 123.3 945 85 5 Image Chart
2005 9 11 00 27.3 122.7 950 80 5 Image Chart
2005 9 11 06 28.3 121.9 955 75 5 Image Chart
2005 9 11 12 29.4 121.0 970 65 5 Image Chart
2005 9 11 18 30.4 120.4 985 50 4 Image Chart
2005 9 12 00 31.7 119.4 996 40 3 Image Chart
2005 9 12 06 33.0 119.4 996 35 3 Image Chart
2005 9 12 12 34.3 120.2 998 35 3 Image Chart
2005 9 12 18 35.0 121.1 998 35 3 Image Chart
2005 9 13 00 35.5 122.5 1000 0 6 Image Chart
2005 9 13 06 36.4 124.8 1002 0 6 Image Chart
2005 9 13 12 36.8 126.2 1004 0 6 Image Chart
Japan Meteorological Agency Best Track Data | Correction Date : 2005-12-19
< Typhoon 200514 2005 Season Typhoon 200516 >

Help